sensor_id;sensor_type;location;lat;lon;timestamp;temperature;humidity
1994;DHT22;998;49.906;10.908;2023-02-10T00:02:17;-1.60;99.90
1994;DHT22;998;49.906;10.908;2023-02-10T00:04:44;-1.60;99.90
1994;DHT22;998;49.906;10.908;2023-02-10T00:07:11;-1.40;99.90
1994;DHT22;998;49.906;10.908;2023-02-10T00:09:39;-1.40;99.90
1994;DHT22;998;49.906;10.908;2023-02-10T00:12:06;-1.50;99.90
1994;DHT22;998;49.906;10.908;2023-02-10T00:14:37;-1.60;99.90
1994;DHT22;998;49.906;10.908;2023-02-10T00:17:04;-1.50;99.90
1994;DHT22;998;49.906;10.908;2023-02-10T00:19:32;-1.60;99.90
1994;DHT22;998;49.906;10.908;2023-02-10T00:22:00;-1.70;99.90
1994;DHT22;998;49.906;10.908;2023-02-10T00:24:28;-1.60;99.90
1994;DHT22;998;49.906;10.908;2023-02-10T00:26:55;-1.60;99.90
1994;DHT22;998;49.906;10.908;2023-02-10T00:29:23;-1.60;99.90
1994;DHT22;998;49.906;10.908;2023-02-10T00:31:52;-1.50;99.90
1994;DHT22;998;49.906;10.908;2023-02-10T00:34:19;-1.50;99.90
1994;DHT22;998;49.906;10.908;2023-02-10T00:36:49;-1.40;99.90
1994;DHT22;998;49.906;10.908;2023-02-10T00:39:16;-1.50;99.90
1994;DHT22;998;49.906;10.908;2023-02-10T00:41:44;-1.50;99.90
1994;DHT22;998;49.906;10.908;2023-02-10T00:44:11;-1.50;99.90
1994;DHT22;998;49.906;10.908;2023-02-10T00:46:39;-1.40;99.90
1994;DHT22;998;49.906;10.908;2023-02-10T00:49:09;-1.50;99.90
1994;DHT22;998;49.906;10.908;2023-02-10T00:51:37;-1.70;99.90
1994;DHT22;998;49.906;10.908;2023-02-10T00:54:04;-1.70;99.90
1994;DHT22;998;49.906;10.908;2023-02-10T00:56:31;-1.70;99.90
1994;DHT22;998;49.906;10.908;2023-02-10T00:58:59;-1.70;99.90
1994;DHT22;998;49.906;10.908;2023-02-10T01:01:26;-1.70;99.90
1994;DHT22;998;49.906;10.908;2023-02-10T01:03:54;-1.80;99.90
1994;DHT22;998;49.906;10.908;2023-02-10T01:06:22;-1.70;99.90
1994;DHT22;998;49.906;10.908;2023-02-10T01:08:50;-1.90;99.90
1994;DHT22;998;49.906;10.908;2023-02-10T01:11:17;-1.70;99.90
1994;DHT22;998;49.906;10.908;2023-02-10T01:13:46;-2.00;99.90
1994;DHT22;998;49.906;10.908;2023-02-10T01:16:14;-2.00;99.90
1994;DHT22;998;49.906;10.908;2023-02-10T01:18:43;-1.80;99.90
1994;DHT22;998;49.906;10.908;2023-02-10T01:21:13;-1.80;99.90
1994;DHT22;998;49.906;10.908;2023-02-10T01:23:42;-1.80;99.90
1994;DHT22;998;49.906;10.908;2023-02-10T01:26:10;-1.80;99.90
1994;DHT22;998;49.906;10.908;2023-02-10T01:28:38;-1.80;99.90
1994;DHT22;998;49.906;10.908;2023-02-10T01:31:06;-1.90;99.90
1994;DHT22;998;49.906;10.908;2023-02-10T01:33:34;-1.80;99.90
1994;DHT22;998;49.906;10.908;2023-02-10T01:36:03;-1.90;99.90
1994;DHT22;998;49.906;10.908;2023-02-10T01:38:31;-1.90;99.90
1994;DHT22;998;49.906;10.908;2023-02-10T01:41:00;-1.90;99.90
1994;DHT22;998;49.906;10.908;2023-02-10T01:43:28;-1.90;99.90
1994;DHT22;998;49.906;10.908;2023-02-10T01:45:55;-2.00;99.90
1994;DHT22;998;49.906;10.908;2023-02-10T01:48:24;-2.00;99.90
1994;DHT22;998;49.906;10.908;2023-02-10T01:50:54;-1.80;99.90
1994;DHT22;998;49.906;10.908;2023-02-10T01:53:22;-1.70;99.90
1994;DHT22;998;49.906;10.908;2023-02-10T01:55:52;-1.80;99.90
1994;DHT22;998;49.906;10.908;2023-02-10T01:58:26;-1.70;99.90
1994;DHT22;998;49.906;10.908;2023-02-10T02:00:54;-1.60;99.90
1994;DHT22;998;49.906;10.908;2023-02-10T02:03:22;-1.70;99.90
1994;DHT22;998;49.906;10.908;2023-02-10T02:05:49;-1.70;99.90
1994;DHT22;998;49.906;10.908;2023-02-10T02:08:19;-1.60;99.90
1994;DHT22;998;49.906;10.908;2023-02-10T02:11:04;-1.60;99.90
1994;DHT22;998;49.906;10.908;2023-02-10T02:13:57;-1.60;99.90
1994;DHT22;998;49.906;10.908;2023-02-10T02:16:35;-1.80;99.90
1994;DHT22;998;49.906;10.908;2023-02-10T02:19:17;-2.00;99.90
1994;DHT22;998;49.906;10.908;2023-02-10T02:22:18;-2.10;99.90
1994;DHT22;998;49.906;10.908;2023-02-10T02:25:12;-2.10;99.90
1994;DHT22;998;49.906;10.908;2023-02-10T02:28:07;-2.20;99.90
1994;DHT22;998;49.906;10.908;2023-02-10T02:30:55;-2.20;99.90
1994;DHT22;998;49.906;10.908;2023-02-10T02:33:29;-2.50;99.90
1994;DHT22;998;49.906;10.908;2023-02-10T02:36:01;-2.50;99.90
1994;DHT22;998;49.906;10.908;2023-02-10T02:38:36;-2.60;99.90
1994;DHT22;998;49.906;10.908;2023-02-10T02:41:03;-2.70;99.90
1994;DHT22;998;49.906;10.908;2023-02-10T02:43:31;-2.70;99.90
1994;DHT22;998;49.906;10.908;2023-02-10T02:46:02;-2.70;99.90
1994;DHT22;998;49.906;10.908;2023-02-10T02:48:47;-2.70;99.90
1994;DHT22;998;49.906;10.908;2023-02-10T02:51:22;-2.70;99.90
1994;DHT22;998;49.906;10.908;2023-02-10T02:53:57;-2.70;99.90
1994;DHT22;998;49.906;10.908;2023-02-10T02:56:34;-2.50;99.90
1994;DHT22;998;49.906;10.908;2023-02-10T02:59:08;-2.30;99.90
1994;DHT22;998;49.906;10.908;2023-02-10T03:01:42;-2.40;99.90
1994;DHT22;998;49.906;10.908;2023-02-10T03:04:13;-2.50;99.90
1994;DHT22;998;49.906;10.908;2023-02-10T03:06:42;-2.50;99.90
1994;DHT22;998;49.906;10.908;2023-02-10T03:09:10;-2.50;99.90
1994;DHT22;998;49.906;10.908;2023-02-10T03:11:37;-2.50;99.90
1994;DHT22;998;49.906;10.908;2023-02-10T03:14:05;-2.50;99.90
1994;DHT22;998;49.906;10.908;2023-02-10T03:16:32;-2.60;99.90
1994;DHT22;998;49.906;10.908;2023-02-10T03:18:59;-2.50;99.90
1994;DHT22;998;49.906;10.908;2023-02-10T03:21:27;-2.60;99.90
1994;DHT22;998;49.906;10.908;2023-02-10T03:23:55;-2.50;99.90
1994;DHT22;998;49.906;10.908;2023-02-10T03:26:22;-2.40;99.90
1994;DHT22;998;49.906;10.908;2023-02-10T03:28:49;-2.20;99.90
1994;DHT22;998;49.906;10.908;2023-02-10T03:31:17;-2.30;99.90
1994;DHT22;998;49.906;10.908;2023-02-10T03:33:44;-2.40;99.90
1994;DHT22;998;49.906;10.908;2023-02-10T03:36:12;-2.30;99.90
1994;DHT22;998;49.906;10.908;2023-02-10T03:38:41;-2.40;99.90
1994;DHT22;998;49.906;10.908;2023-02-10T03:41:08;-2.40;99.90
1994;DHT22;998;49.906;10.908;2023-02-10T03:43:36;-2.70;99.90
1994;DHT22;998;49.906;10.908;2023-02-10T03:46:04;-2.70;99.90
1994;DHT22;998;49.906;10.908;2023-02-10T03:48:32;-2.70;99.90
1994;DHT22;998;49.906;10.908;2023-02-10T03:51:00;-2.90;99.90
1994;DHT22;998;49.906;10.908;2023-02-10T03:53:29;-2.80;99.90
1994;DHT22;998;49.906;10.908;2023-02-10T03:55:58;-2.70;99.90
1994;DHT22;998;49.906;10.908;2023-02-10T03:58:26;-2.50;99.90
1994;DHT22;998;49.906;10.908;2023-02-10T04:00:53;-2.30;99.90
1994;DHT22;998;49.906;10.908;2023-02-10T04:03:21;-2.30;99.90
1994;DHT22;998;49.906;10.908;2023-02-10T04:05:48;-2.30;99.90
1994;DHT22;998;49.906;10.908;2023-02-10T04:08:15;-2.20;99.90
1994;DHT22;998;49.906;10.908;2023-02-10T04:10:43;-2.40;99.90
1994;DHT22;998;49.906;10.908;2023-02-10T04:13:12;-2.50;99.90
1994;DHT22;998;49.906;10.908;2023-02-10T04:15:39;-2.50;99.90
1994;DHT22;998;49.906;10.908;2023-02-10T04:18:07;-2.70;99.90
1994;DHT22;998;49.906;10.908;2023-02-10T04:20:34;-2.70;99.90
1994;DHT22;998;49.906;10.908;2023-02-10T04:23:01;-2.80;99.90
1994;DHT22;998;49.906;10.908;2023-02-10T04:25:29;-3.00;99.90
1994;DHT22;998;49.906;10.908;2023-02-10T04:27:56;-3.00;99.90
1994;DHT22;998;49.906;10.908;2023-02-10T04:30:25;-3.10;99.90
1994;DHT22;998;49.906;10.908;2023-02-10T04:32:52;-3.30;99.90
1994;DHT22;998;49.906;10.908;2023-02-10T04:35:19;-3.20;99.90
1994;DHT22;998;49.906;10.908;2023-02-10T04:37:47;-3.30;99.90
1994;DHT22;998;49.906;10.908;2023-02-10T04:40:14;-3.20;99.90
1994;DHT22;998;49.906;10.908;2023-02-10T04:42:42;-3.10;99.90
1994;DHT22;998;49.906;10.908;2023-02-10T04:45:09;-3.20;99.90
1994;DHT22;998;49.906;10.908;2023-02-10T04:47:38;-3.00;99.90
1994;DHT22;998;49.906;10.908;2023-02-10T04:50:06;-2.90;99.90
1994;DHT22;998;49.906;10.908;2023-02-10T04:52:34;-2.90;99.90
1994;DHT22;998;49.906;10.908;2023-02-10T04:55:01;-2.90;99.90
1994;DHT22;998;49.906;10.908;2023-02-10T04:57:28;-3.10;99.90
1994;DHT22;998;49.906;10.908;2023-02-10T04:59:56;-3.30;99.90
1994;DHT22;998;49.906;10.908;2023-02-10T05:02:23;-3.30;99.90
1994;DHT22;998;49.906;10.908;2023-02-10T05:04:52;-3.40;99.90
1994;DHT22;998;49.906;10.908;2023-02-10T05:07:19;-3.40;99.90
1994;DHT22;998;49.906;10.908;2023-02-10T05:09:47;-3.40;99.90
1994;DHT22;998;49.906;10.908;2023-02-10T05:12:14;-3.30;99.90
1994;DHT22;998;49.906;10.908;2023-02-10T05:14:42;-3.10;99.90
1994;DHT22;998;49.906;10.908;2023-02-10T05:17:09;-3.20;99.90
1994;DHT22;998;49.906;10.908;2023-02-10T05:19:36;-3.20;99.90
1994;DHT22;998;49.906;10.908;2023-02-10T05:22:05;-3.20;99.90
1994;DHT22;998;49.906;10.908;2023-02-10T05:24:33;-3.00;99.90
1994;DHT22;998;49.906;10.908;2023-02-10T05:27:00;-2.90;99.90
1994;DHT22;998;49.906;10.908;2023-02-10T05:29:28;-2.80;99.90
1994;DHT22;998;49.906;10.908;2023-02-10T05:31:55;-2.80;99.90
1994;DHT22;998;49.906;10.908;2023-02-10T05:34:23;-2.80;99.90
1994;DHT22;998;49.906;10.908;2023-02-10T05:36:51;-2.80;99.90
1994;DHT22;998;49.906;10.908;2023-02-10T05:39:20;-2.70;99.90
1994;DHT22;998;49.906;10.908;2023-02-10T05:41:51;-2.70;99.90
1994;DHT22;998;49.906;10.908;2023-02-10T05:44:18;-2.70;99.90
1994;DHT22;998;49.906;10.908;2023-02-10T05:46:46;-2.70;99.90
1994;DHT22;998;49.906;10.908;2023-02-10T05:49:14;-2.80;99.90
1994;DHT22;998;49.906;10.908;2023-02-10T05:51:41;-2.90;99.90
1994;DHT22;998;49.906;10.908;2023-02-10T05:54:09;-3.10;99.90
1994;DHT22;998;49.906;10.908;2023-02-10T05:56:38;-2.90;99.90
1994;DHT22;998;49.906;10.908;2023-02-10T05:59:06;-2.90;99.90
1994;DHT22;998;49.906;10.908;2023-02-10T06:01:34;-3.10;99.90
1994;DHT22;998;49.906;10.908;2023-02-10T06:04:01;-3.10;99.90
1994;DHT22;998;49.906;10.908;2023-02-10T06:06:28;-2.90;99.90
1994;DHT22;998;49.906;10.908;2023-02-10T06:08:55;-3.00;99.90
1994;DHT22;998;49.906;10.908;2023-02-10T06:11:23;-3.00;99.90
1994;DHT22;998;49.906;10.908;2023-02-10T06:13:52;-2.90;99.90
1994;DHT22;998;49.906;10.908;2023-02-10T06:16:19;-2.80;99.90
1994;DHT22;998;49.906;10.908;2023-02-10T06:18:46;-2.80;99.90
1994;DHT22;998;49.906;10.908;2023-02-10T06:21:14;-3.00;99.90
1994;DHT22;998;49.906;10.908;2023-02-10T06:23:41;-3.40;99.90
1994;DHT22;998;49.906;10.908;2023-02-10T06:26:09;-3.40;99.90
1994;DHT22;998;49.906;10.908;2023-02-10T06:28:36;-3.30;99.90
1994;DHT22;998;49.906;10.908;2023-02-10T06:31:05;-3.10;99.90
1994;DHT22;998;49.906;10.908;2023-02-10T06:33:34;-3.10;99.90
1994;DHT22;998;49.906;10.908;2023-02-10T06:36:02;-3.20;99.90
1994;DHT22;998;49.906;10.908;2023-02-10T06:38:31;-3.20;99.90
1994;DHT22;998;49.906;10.908;2023-02-10T06:40:58;-3.00;99.90
1994;DHT22;998;49.906;10.908;2023-02-10T06:43:26;-3.00;99.90
1994;DHT22;998;49.906;10.908;2023-02-10T06:45:53;-3.00;99.90
1994;DHT22;998;49.906;10.908;2023-02-10T06:48:22;-3.10;99.90
1994;DHT22;998;49.906;10.908;2023-02-10T06:50:49;-3.20;99.90
1994;DHT22;998;49.906;10.908;2023-02-10T06:53:18;-3.10;99.90
1994;DHT22;998;49.906;10.908;2023-02-10T06:55:45;-3.10;99.90
1994;DHT22;998;49.906;10.908;2023-02-10T06:58:13;-3.20;99.90
1994;DHT22;998;49.906;10.908;2023-02-10T07:00:40;-3.40;99.90
1994;DHT22;998;49.906;10.908;2023-02-10T07:03:07;-3.40;99.90
1994;DHT22;998;49.906;10.908;2023-02-10T07:05:36;-3.40;99.90
1994;DHT22;998;49.906;10.908;2023-02-10T07:08:05;-3.50;99.90
1994;DHT22;998;49.906;10.908;2023-02-10T07:10:33;-3.30;99.90
1994;DHT22;998;49.906;10.908;2023-02-10T07:13:00;-3.30;99.90
1994;DHT22;998;49.906;10.908;2023-02-10T07:15:27;-3.40;99.90
1994;DHT22;998;49.906;10.908;2023-02-10T07:17:55;-3.40;99.90
1994;DHT22;998;49.906;10.908;2023-02-10T07:20:22;-3.40;99.90
1994;DHT22;998;49.906;10.908;2023-02-10T07:22:51;-3.40;99.90
1994;DHT22;998;49.906;10.908;2023-02-10T07:25:18;-3.20;99.90
1994;DHT22;998;49.906;10.908;2023-02-10T07:27:46;-3.30;99.90
1994;DHT22;998;49.906;10.908;2023-02-10T07:30:13;-3.20;99.90
1994;DHT22;998;49.906;10.908;2023-02-10T07:32:40;-3.30;99.90
1994;DHT22;998;49.906;10.908;2023-02-10T07:35:10;-3.30;99.90
1994;DHT22;998;49.906;10.908;2023-02-10T07:37:38;-3.40;99.90
1994;DHT22;998;49.906;10.908;2023-02-10T07:40:09;-3.40;99.90
1994;DHT22;998;49.906;10.908;2023-02-10T07:42:37;-3.30;99.90
1994;DHT22;998;49.906;10.908;2023-02-10T07:45:04;-3.20;99.90
1994;DHT22;998;49.906;10.908;2023-02-10T07:47:32;-3.00;99.90
1994;DHT22;998;49.906;10.908;2023-02-10T07:49:59;-2.90;99.90
1994;DHT22;998;49.906;10.908;2023-02-10T07:52:27;-2.70;99.90
1994;DHT22;998;49.906;10.908;2023-02-10T07:54:54;-2.80;99.90
1994;DHT22;998;49.906;10.908;2023-02-10T07:57:24;-2.90;99.90
1994;DHT22;998;49.906;10.908;2023-02-10T07:59:52;-2.80;99.90
1994;DHT22;998;49.906;10.908;2023-02-10T08:02:19;-2.80;99.90
1994;DHT22;998;49.906;10.908;2023-02-10T08:04:46;-2.70;99.90
1994;DHT22;998;49.906;10.908;2023-02-10T08:07:13;-2.70;99.90
1994;DHT22;998;49.906;10.908;2023-02-10T08:09:41;-2.60;99.90
1994;DHT22;998;49.906;10.908;2023-02-10T08:12:08;-2.60;99.90
1994;DHT22;998;49.906;10.908;2023-02-10T08:14:37;-2.70;99.90
1994;DHT22;998;49.906;10.908;2023-02-10T08:17:04;-2.70;99.90
1994;DHT22;998;49.906;10.908;2023-02-10T08:19:31;-2.70;99.90
1994;DHT22;998;49.906;10.908;2023-02-10T08:22:02;-2.70;99.90
1994;DHT22;998;49.906;10.908;2023-02-10T08:24:30;-2.70;99.90
1994;DHT22;998;49.906;10.908;2023-02-10T08:26:57;-2.70;99.90
1994;DHT22;998;49.906;10.908;2023-02-10T08:29:25;-2.70;99.90
1994;DHT22;998;49.906;10.908;2023-02-10T08:31:53;-2.60;99.90
1994;DHT22;998;49.906;10.908;2023-02-10T08:34:21;-2.50;99.90
1994;DHT22;998;49.906;10.908;2023-02-10T08:36:49;-2.30;99.90
1994;DHT22;998;49.906;10.908;2023-02-10T08:39:16;-2.30;99.90
1994;DHT22;998;49.906;10.908;2023-02-10T08:41:43;-2.20;99.90
1994;DHT22;998;49.906;10.908;2023-02-10T08:44:12;-2.20;99.90
1994;DHT22;998;49.906;10.908;2023-02-10T08:46:40;-2.20;99.90
1994;DHT22;998;49.906;10.908;2023-02-10T08:49:09;-2.10;99.90
1994;DHT22;998;49.906;10.908;2023-02-10T08:51:36;-2.10;99.90
1994;DHT22;998;49.906;10.908;2023-02-10T08:54:05;-2.00;99.90
1994;DHT22;998;49.906;10.908;2023-02-10T08:56:33;-2.00;99.90
1994;DHT22;998;49.906;10.908;2023-02-10T08:59:00;-1.90;99.90
1994;DHT22;998;49.906;10.908;2023-02-10T09:01:27;-1.90;99.90
1994;DHT22;998;49.906;10.908;2023-02-10T09:03:55;-1.90;99.90
1994;DHT22;998;49.906;10.908;2023-02-10T09:06:26;-1.90;99.90
1994;DHT22;998;49.906;10.908;2023-02-10T09:08:54;-1.90;99.90
1994;DHT22;998;49.906;10.908;2023-02-10T09:11:22;-1.90;99.90
1994;DHT22;998;49.906;10.908;2023-02-10T09:13:50;-1.80;99.90
1994;DHT22;998;49.906;10.908;2023-02-10T09:16:17;-1.70;99.90
1994;DHT22;998;49.906;10.908;2023-02-10T09:18:45;-1.60;99.90
1994;DHT22;998;49.906;10.908;2023-02-10T09:21:12;-1.70;99.90
1994;DHT22;998;49.906;10.908;2023-02-10T09:23:41;-1.60;99.90
1994;DHT22;998;49.906;10.908;2023-02-10T09:26:08;-1.60;99.90
1994;DHT22;998;49.906;10.908;2023-02-10T09:28:35;-1.60;99.90
1994;DHT22;998;49.906;10.908;2023-02-10T09:31:05;-1.50;99.90
1994;DHT22;998;49.906;10.908;2023-02-10T09:33:32;-1.60;99.90
1994;DHT22;998;49.906;10.908;2023-02-10T09:35:59;-1.60;99.90
1994;DHT22;998;49.906;10.908;2023-02-10T09:38:26;-1.60;99.90
1994;DHT22;998;49.906;10.908;2023-02-10T09:41:04;-1.60;99.90
1994;DHT22;998;49.906;10.908;2023-02-10T09:43:52;-1.60;99.90
1994;DHT22;998;49.906;10.908;2023-02-10T09:46:30;-1.60;99.90
1994;DHT22;998;49.906;10.908;2023-02-10T09:49:11;-1.50;99.90
1994;DHT22;998;49.906;10.908;2023-02-10T09:51:48;-1.60;99.90
1994;DHT22;998;49.906;10.908;2023-02-10T09:54:19;-1.50;99.90
1994;DHT22;998;49.906;10.908;2023-02-10T09:56:47;-1.40;99.90
1994;DHT22;998;49.906;10.908;2023-02-10T09:59:18;-1.40;99.90
1994;DHT22;998;49.906;10.908;2023-02-10T10:01:50;-1.40;99.90
1994;DHT22;998;49.906;10.908;2023-02-10T10:04:21;-1.40;99.90
1994;DHT22;998;49.906;10.908;2023-02-10T10:06:50;-1.20;99.90
1994;DHT22;998;49.906;10.908;2023-02-10T10:09:26;-1.20;99.90
1994;DHT22;998;49.906;10.908;2023-02-10T10:11:59;-1.10;99.90
1994;DHT22;998;49.906;10.908;2023-02-10T10:14:27;-1.10;99.90
1994;DHT22;998;49.906;10.908;2023-02-10T10:17:10;-1.00;99.90
1994;DHT22;998;49.906;10.908;2023-02-10T10:19:52;-1.00;99.90
1994;DHT22;998;49.906;10.908;2023-02-10T10:22:36;-0.90;99.90
1994;DHT22;998;49.906;10.908;2023-02-10T10:25:21;-0.80;99.90
1994;DHT22;998;49.906;10.908;2023-02-10T10:28:02;-0.70;99.90
1994;DHT22;998;49.906;10.908;2023-02-10T10:30:39;-0.70;99.90
1994;DHT22;998;49.906;10.908;2023-02-10T10:33:19;-0.90;99.90
1994;DHT22;998;49.906;10.908;2023-02-10T10:35:47;-0.80;99.90
1994;DHT22;998;49.906;10.908;2023-02-10T10:38:18;-0.70;99.90
1994;DHT22;998;49.906;10.908;2023-02-10T10:40:47;-0.80;99.90
1994;DHT22;998;49.906;10.908;2023-02-10T10:43:20;-0.80;99.90
1994;DHT22;998;49.906;10.908;2023-02-10T10:45:50;-0.80;99.90
1994;DHT22;998;49.906;10.908;2023-02-10T10:48:21;-0.70;99.90
1994;DHT22;998;49.906;10.908;2023-02-10T10:50:52;-0.70;99.90
1994;DHT22;998;49.906;10.908;2023-02-10T10:53:35;-0.70;99.90
1994;DHT22;998;49.906;10.908;2023-02-10T10:56:06;-0.70;99.90
1994;DHT22;998;49.906;10.908;2023-02-10T10:58:39;-0.60;99.90
1994;DHT22;998;49.906;10.908;2023-02-10T11:01:08;-0.60;99.90
1994;DHT22;998;49.906;10.908;2023-02-10T11:03:35;-0.60;99.90
1994;DHT22;998;49.906;10.908;2023-02-10T11:06:05;-0.60;99.90
1994;DHT22;998;49.906;10.908;2023-02-10T11:08:35;-0.60;99.90
1994;DHT22;998;49.906;10.908;2023-02-10T11:11:05;-0.50;99.90
1994;DHT22;998;49.906;10.908;2023-02-10T11:13:38;-0.50;99.90
1994;DHT22;998;49.906;10.908;2023-02-10T11:16:09;-0.40;99.90
1994;DHT22;998;49.906;10.908;2023-02-10T11:18:37;-0.40;99.90
1994;DHT22;998;49.906;10.908;2023-02-10T11:21:07;-0.60;99.90
1994;DHT22;998;49.906;10.908;2023-02-10T11:23:36;-0.50;99.90
1994;DHT22;998;49.906;10.908;2023-02-10T11:26:17;-0.60;99.90
1994;DHT22;998;49.906;10.908;2023-02-10T11:28:46;-0.60;99.90
1994;DHT22;998;49.906;10.908;2023-02-10T11:31:25;-0.50;99.90
1994;DHT22;998;49.906;10.908;2023-02-10T11:33:57;-0.50;99.90
1994;DHT22;998;49.906;10.908;2023-02-10T11:36:30;-0.50;99.90
1994;DHT22;998;49.906;10.908;2023-02-10T11:39:00;-0.50;99.90
1994;DHT22;998;49.906;10.908;2023-02-10T11:41:29;-0.40;99.90
1994;DHT22;998;49.906;10.908;2023-02-10T11:44:00;-0.30;99.90
1994;DHT22;998;49.906;10.908;2023-02-10T11:46:29;-0.30;99.90
1994;DHT22;998;49.906;10.908;2023-02-10T11:48:59;-0.20;99.90
1994;DHT22;998;49.906;10.908;2023-02-10T11:51:27;-0.20;99.90
1994;DHT22;998;49.906;10.908;2023-02-10T11:53:55;-0.20;99.90
1994;DHT22;998;49.906;10.908;2023-02-10T11:56:29;-0.10;99.90
1994;DHT22;998;49.906;10.908;2023-02-10T11:59:31;-0.10;99.90
1994;DHT22;998;49.906;10.908;2023-02-10T12:02:08;-0.10;99.90
1994;DHT22;998;49.906;10.908;2023-02-10T12:05:08;-0.10;99.90
1994;DHT22;998;49.906;10.908;2023-02-10T12:07:48;0.00;99.90
1994;DHT22;998;49.906;10.908;2023-02-10T12:10:25;0.00;99.90
1994;DHT22;998;49.906;10.908;2023-02-10T12:13:00;0.10;99.90
1994;DHT22;998;49.906;10.908;2023-02-10T12:15:37;0.10;99.90
1994;DHT22;998;49.906;10.908;2023-02-10T12:18:27;0.00;99.90
1994;DHT22;998;49.906;10.908;2023-02-10T12:21:09;0.00;99.90
1994;DHT22;998;49.906;10.908;2023-02-10T12:23:53;0.00;99.90
1994;DHT22;998;49.906;10.908;2023-02-10T12:26:27;0.10;99.90
1994;DHT22;998;49.906;10.908;2023-02-10T12:29:05;0.10;99.90
1994;DHT22;998;49.906;10.908;2023-02-10T12:31:44;0.20;99.90
1994;DHT22;998;49.906;10.908;2023-02-10T12:34:27;0.30;99.90
1994;DHT22;998;49.906;10.908;2023-02-10T12:37:06;0.30;99.90
1994;DHT22;998;49.906;10.908;2023-02-10T12:39:44;0.40;99.90
1994;DHT22;998;49.906;10.908;2023-02-10T12:42:26;0.40;99.90
1994;DHT22;998;49.906;10.908;2023-02-10T12:45:01;0.40;99.90
1994;DHT22;998;49.906;10.908;2023-02-10T12:47:41;0.40;99.90
1994;DHT22;998;49.906;10.908;2023-02-10T12:50:27;0.40;99.90
1994;DHT22;998;49.906;10.908;2023-02-10T12:52:59;0.40;99.90
1994;DHT22;998;49.906;10.908;2023-02-10T12:55:36;0.40;99.90
1994;DHT22;998;49.906;10.908;2023-02-10T12:58:10;0.50;99.90
1994;DHT22;998;49.906;10.908;2023-02-10T13:00:43;0.50;99.90
1994;DHT22;998;49.906;10.908;2023-02-10T13:03:17;0.60;99.90
1994;DHT22;998;49.906;10.908;2023-02-10T13:05:48;0.70;99.90
1994;DHT22;998;49.906;10.908;2023-02-10T13:08:23;0.70;99.90
1994;DHT22;998;49.906;10.908;2023-02-10T13:10:54;0.70;99.90
1994;DHT22;998;49.906;10.908;2023-02-10T13:13:25;0.80;99.90
1994;DHT22;998;49.906;10.908;2023-02-10T13:15:57;0.80;99.90
1994;DHT22;998;49.906;10.908;2023-02-10T13:18:29;0.90;99.90
1994;DHT22;998;49.906;10.908;2023-02-10T13:21:03;0.90;99.90
1994;DHT22;998;49.906;10.908;2023-02-10T13:23:37;1.00;99.90
1994;DHT22;998;49.906;10.908;2023-02-10T13:29:10;1.10;99.90
1994;DHT22;998;49.906;10.908;2023-02-10T13:32:11;1.00;99.90
1994;DHT22;998;49.906;10.908;2023-02-10T13:34:43;1.10;99.90
1994;DHT22;998;49.906;10.908;2023-02-10T13:37:14;1.10;99.90
1994;DHT22;998;49.906;10.908;2023-02-10T13:39:49;1.10;99.90
1994;DHT22;998;49.906;10.908;2023-02-10T13:42:23;1.10;99.90
1994;DHT22;998;49.906;10.908;2023-02-10T13:44:58;1.10;99.90
1994;DHT22;998;49.906;10.908;2023-02-10T13:47:33;1.20;99.90
1994;DHT22;998;49.906;10.908;2023-02-10T13:50:06;1.30;99.90
1994;DHT22;998;49.906;10.908;2023-02-10T13:52:35;1.20;99.90
1994;DHT22;998;49.906;10.908;2023-02-10T13:57:52;1.30;99.90
1994;DHT22;998;49.906;10.908;2023-02-10T14:00:22;1.40;99.90
1994;DHT22;998;49.906;10.908;2023-02-10T14:03:18;1.50;99.90
1994;DHT22;998;49.906;10.908;2023-02-10T14:05:54;1.50;99.90
1994;DHT22;998;49.906;10.908;2023-02-10T14:08:39;1.70;99.90
1994;DHT22;998;49.906;10.908;2023-02-10T14:11:29;1.70;99.90
1994;DHT22;998;49.906;10.908;2023-02-10T14:13:59;1.80;99.90
1994;DHT22;998;49.906;10.908;2023-02-10T14:16:29;1.90;99.90
1994;DHT22;998;49.906;10.908;2023-02-10T14:18:59;1.80;99.90
1994;DHT22;998;49.906;10.908;2023-02-10T14:21:37;1.80;99.90
1994;DHT22;998;49.906;10.908;2023-02-10T14:24:12;1.80;99.90
1994;DHT22;998;49.906;10.908;2023-02-10T14:26:43;1.80;99.90
1994;DHT22;998;49.906;10.908;2023-02-10T14:29:17;1.90;99.90
1994;DHT22;998;49.906;10.908;2023-02-10T14:31:48;1.90;99.90
1994;DHT22;998;49.906;10.908;2023-02-10T14:34:18;1.90;99.90
1994;DHT22;998;49.906;10.908;2023-02-10T14:36:51;2.00;99.90
1994;DHT22;998;49.906;10.908;2023-02-10T14:39:21;2.00;99.90
1994;DHT22;998;49.906;10.908;2023-02-10T14:41:50;2.00;99.90
1994;DHT22;998;49.906;10.908;2023-02-10T14:44:26;2.00;99.90
1994;DHT22;998;49.906;10.908;2023-02-10T14:46:55;2.00;99.90
1994;DHT22;998;49.906;10.908;2023-02-10T14:49:23;2.00;99.90
1994;DHT22;998;49.906;10.908;2023-02-10T14:51:52;2.00;99.90
1994;DHT22;998;49.906;10.908;2023-02-10T14:54:21;2.00;99.90
1994;DHT22;998;49.906;10.908;2023-02-10T14:56:52;2.00;99.90
1994;DHT22;998;49.906;10.908;2023-02-10T14:59:21;2.00;99.90
1994;DHT22;998;49.906;10.908;2023-02-10T15:01:49;2.00;99.90
1994;DHT22;998;49.906;10.908;2023-02-10T15:04:17;2.00;99.90
1994;DHT22;998;49.906;10.908;2023-02-10T15:06:45;1.90;99.90
1994;DHT22;998;49.906;10.908;2023-02-10T15:09:17;1.90;99.90
1994;DHT22;998;49.906;10.908;2023-02-10T15:11:48;1.90;99.90
1994;DHT22;998;49.906;10.908;2023-02-10T15:14:35;1.90;99.90
1994;DHT22;998;49.906;10.908;2023-02-10T15:17:06;1.90;99.90
1994;DHT22;998;49.906;10.908;2023-02-10T15:19:35;1.90;99.90
1994;DHT22;998;49.906;10.908;2023-02-10T15:22:02;1.90;99.90
1994;DHT22;998;49.906;10.908;2023-02-10T15:24:32;1.90;99.90
1994;DHT22;998;49.906;10.908;2023-02-10T15:27:12;1.90;99.90
1994;DHT22;998;49.906;10.908;2023-02-10T15:29:41;1.90;99.90
1994;DHT22;998;49.906;10.908;2023-02-10T15:32:16;1.90;99.90
1994;DHT22;998;49.906;10.908;2023-02-10T15:34:44;1.90;99.90
1994;DHT22;998;49.906;10.908;2023-02-10T15:37:17;1.90;99.90
1994;DHT22;998;49.906;10.908;2023-02-10T15:39:56;1.90;99.90
1994;DHT22;998;49.906;10.908;2023-02-10T15:42:27;1.90;99.90
1994;DHT22;998;49.906;10.908;2023-02-10T15:45:02;1.90;99.90
1994;DHT22;998;49.906;10.908;2023-02-10T15:47:44;1.90;99.90
1994;DHT22;998;49.906;10.908;2023-02-10T15:50:12;1.90;99.90
1994;DHT22;998;49.906;10.908;2023-02-10T15:52:41;1.90;99.90
1994;DHT22;998;49.906;10.908;2023-02-10T15:55:16;1.90;99.90
1994;DHT22;998;49.906;10.908;2023-02-10T15:57:44;1.90;99.90
1994;DHT22;998;49.906;10.908;2023-02-10T16:00:18;1.90;99.90
1994;DHT22;998;49.906;10.908;2023-02-10T16:02:45;1.90;99.90
1994;DHT22;998;49.906;10.908;2023-02-10T16:05:12;1.90;99.90
1994;DHT22;998;49.906;10.908;2023-02-10T16:07:39;1.90;99.90
1994;DHT22;998;49.906;10.908;2023-02-10T16:10:15;1.80;99.90
1994;DHT22;998;49.906;10.908;2023-02-10T16:12:42;1.80;99.90
1994;DHT22;998;49.906;10.908;2023-02-10T16:15:12;1.80;99.90
1994;DHT22;998;49.906;10.908;2023-02-10T16:17:42;1.80;99.90
1994;DHT22;998;49.906;10.908;2023-02-10T16:20:15;1.70;99.90
1994;DHT22;998;49.906;10.908;2023-02-10T16:22:44;1.70;99.90
1994;DHT22;998;49.906;10.908;2023-02-10T16:25:11;1.70;99.90
1994;DHT22;998;49.906;10.908;2023-02-10T16:27:40;1.60;99.90
1994;DHT22;998;49.906;10.908;2023-02-10T16:30:13;1.70;99.90
1994;DHT22;998;49.906;10.908;2023-02-10T16:32:41;1.60;99.90
1994;DHT22;998;49.906;10.908;2023-02-10T16:35:09;1.60;99.90
1994;DHT22;998;49.906;10.908;2023-02-10T16:37:36;1.60;99.90